sensor_id;sensor_type;location;lat;lon;timestamp;temperature;humidity
11055;DHT22;5580;50.106;8.702;2022-10-31T00:01:58;15.40;99.90
11055;DHT22;5580;50.106;8.702;2022-10-31T00:04:24;15.40;99.90
11055;DHT22;5580;50.106;8.702;2022-10-31T00:06:49;15.30;99.90
11055;DHT22;5580;50.106;8.702;2022-10-31T00:09:15;15.30;99.90
11055;DHT22;5580;50.106;8.702;2022-10-31T00:11:40;15.20;99.90
11055;DHT22;5580;50.106;8.702;2022-10-31T00:14:06;15.30;99.90
11055;DHT22;5580;50.106;8.702;2022-10-31T00:16:32;15.30;99.90
11055;DHT22;5580;50.106;8.702;2022-10-31T00:19:00;15.30;99.90
11055;DHT22;5580;50.106;8.702;2022-10-31T00:21:26;15.30;99.90
11055;DHT22;5580;50.106;8.702;2022-10-31T00:23:52;15.20;99.90
11055;DHT22;5580;50.106;8.702;2022-10-31T00:26:18;15.10;99.90
11055;DHT22;5580;50.106;8.702;2022-10-31T00:28:44;15.00;99.90
11055;DHT22;5580;50.106;8.702;2022-10-31T00:31:11;15.00;99.90
11055;DHT22;5580;50.106;8.702;2022-10-31T00:33:38;15.00;99.90
11055;DHT22;5580;50.106;8.702;2022-10-31T00:36:05;15.00;99.90
11055;DHT22;5580;50.106;8.702;2022-10-31T00:38:31;14.90;99.90
11055;DHT22;5580;50.106;8.702;2022-10-31T00:40:57;15.00;99.90
11055;DHT22;5580;50.106;8.702;2022-10-31T00:43:23;15.00;99.90
11055;DHT22;5580;50.106;8.702;2022-10-31T00:45:49;15.00;99.90
11055;DHT22;5580;50.106;8.702;2022-10-31T00:48:15;15.00;99.90
11055;DHT22;5580;50.106;8.702;2022-10-31T00:50:41;14.90;99.90
11055;DHT22;5580;50.106;8.702;2022-10-31T00:53:07;14.80;99.90
11055;DHT22;5580;50.106;8.702;2022-10-31T00:55:32;14.80;99.90
11055;DHT22;5580;50.106;8.702;2022-10-31T00:57:58;14.70;99.90
11055;DHT22;5580;50.106;8.702;2022-10-31T01:00:23;14.70;99.90
11055;DHT22;5580;50.106;8.702;2022-10-31T01:02:49;14.80;99.90
11055;DHT22;5580;50.106;8.702;2022-10-31T01:05:14;14.70;99.90
11055;DHT22;5580;50.106;8.702;2022-10-31T01:07:41;14.80;99.90
11055;DHT22;5580;50.106;8.702;2022-10-31T01:10:08;14.80;99.90
11055;DHT22;5580;50.106;8.702;2022-10-31T01:12:41;14.80;99.90
11055;DHT22;5580;50.106;8.702;2022-10-31T01:15:08;14.90;99.90
11055;DHT22;5580;50.106;8.702;2022-10-31T01:17:34;14.90;99.90
11055;DHT22;5580;50.106;8.702;2022-10-31T01:20:00;14.90;99.90
11055;DHT22;5580;50.106;8.702;2022-10-31T01:22:25;15.00;99.90
11055;DHT22;5580;50.106;8.702;2022-10-31T01:24:51;14.90;99.90
11055;DHT22;5580;50.106;8.702;2022-10-31T01:27:17;14.90;99.90
11055;DHT22;5580;50.106;8.702;2022-10-31T01:29:42;14.90;99.90
11055;DHT22;5580;50.106;8.702;2022-10-31T01:32:08;14.90;99.90
11055;DHT22;5580;50.106;8.702;2022-10-31T01:34:34;14.90;99.90
11055;DHT22;5580;50.106;8.702;2022-10-31T01:36:59;14.90;99.90
11055;DHT22;5580;50.106;8.702;2022-10-31T01:39:25;14.80;99.90
11055;DHT22;5580;50.106;8.702;2022-10-31T01:41:52;14.70;99.90
11055;DHT22;5580;50.106;8.702;2022-10-31T01:49:24;14.60;99.90
11055;DHT22;5580;50.106;8.702;2022-10-31T01:51:57;14.60;99.90
11055;DHT22;5580;50.106;8.702;2022-10-31T01:54:26;14.60;99.90
11055;DHT22;5580;50.106;8.702;2022-10-31T01:56:56;14.60;99.90
11055;DHT22;5580;50.106;8.702;2022-10-31T01:59:24;14.60;99.90
11055;DHT22;5580;50.106;8.702;2022-10-31T02:01:50;14.50;99.90
11055;DHT22;5580;50.106;8.702;2022-10-31T02:04:18;14.50;99.90
11055;DHT22;5580;50.106;8.702;2022-10-31T02:06:58;14.40;99.90
11055;DHT22;5580;50.106;8.702;2022-10-31T02:09:26;14.50;99.90
11055;DHT22;5580;50.106;8.702;2022-10-31T02:11:54;14.60;99.90
11055;DHT22;5580;50.106;8.702;2022-10-31T02:14:24;14.50;99.90
11055;DHT22;5580;50.106;8.702;2022-10-31T02:16:50;14.40;99.90
11055;DHT22;5580;50.106;8.702;2022-10-31T02:19:28;14.30;99.90
11055;DHT22;5580;50.106;8.702;2022-10-31T02:28:00;14.20;99.90
11055;DHT22;5580;50.106;8.702;2022-10-31T02:33:41;14.00;99.90
11055;DHT22;5580;50.106;8.702;2022-10-31T02:36:20;13.90;99.90
11055;DHT22;5580;50.106;8.702;2022-10-31T02:41:59;13.70;99.90
11055;DHT22;5580;50.106;8.702;2022-10-31T02:47:12;13.70;99.90
11055;DHT22;5580;50.106;8.702;2022-10-31T02:49:48;13.70;99.90
11055;DHT22;5580;50.106;8.702;2022-10-31T02:52:25;13.70;99.90
11055;DHT22;5580;50.106;8.702;2022-10-31T02:54:52;13.70;99.90
11055;DHT22;5580;50.106;8.702;2022-10-31T02:57:28;13.70;99.90
11055;DHT22;5580;50.106;8.702;2022-10-31T03:00:00;13.80;99.90
11055;DHT22;5580;50.106;8.702;2022-10-31T03:10:20;13.90;99.90
11055;DHT22;5580;50.106;8.702;2022-10-31T03:13:10;14.00;99.90
11055;DHT22;5580;50.106;8.702;2022-10-31T03:15:47;14.10;99.90
11055;DHT22;5580;50.106;8.702;2022-10-31T03:18:26;14.10;99.90
11055;DHT22;5580;50.106;8.702;2022-10-31T03:23:30;14.00;99.90
11055;DHT22;5580;50.106;8.702;2022-10-31T03:25:58;13.90;99.90
11055;DHT22;5580;50.106;8.702;2022-10-31T03:28:30;13.90;99.90
11055;DHT22;5580;50.106;8.702;2022-10-31T03:30:59;13.90;99.90
11055;DHT22;5580;50.106;8.702;2022-10-31T03:33:28;13.90;99.90
11055;DHT22;5580;50.106;8.702;2022-10-31T03:35:57;13.90;99.90
11055;DHT22;5580;50.106;8.702;2022-10-31T03:38:26;13.80;99.90
11055;DHT22;5580;50.106;8.702;2022-10-31T03:40:54;13.80;99.90
11055;DHT22;5580;50.106;8.702;2022-10-31T03:43:26;13.80;99.90
11055;DHT22;5580;50.106;8.702;2022-10-31T03:45:53;13.80;99.90
11055;DHT22;5580;50.106;8.702;2022-10-31T03:48:20;13.80;99.90
11055;DHT22;5580;50.106;8.702;2022-10-31T03:51:16;13.80;99.90
11055;DHT22;5580;50.106;8.702;2022-10-31T03:56:34;13.60;99.90
11055;DHT22;5580;50.106;8.702;2022-10-31T03:59:13;13.50;99.90
11055;DHT22;5580;50.106;8.702;2022-10-31T04:01:46;13.50;99.90
11055;DHT22;5580;50.106;8.702;2022-10-31T04:04:14;13.40;99.90
11055;DHT22;5580;50.106;8.702;2022-10-31T04:06:41;13.30;99.90
11055;DHT22;5580;50.106;8.702;2022-10-31T04:09:09;13.30;99.90
11055;DHT22;5580;50.106;8.702;2022-10-31T04:11:42;13.20;99.90
11055;DHT22;5580;50.106;8.702;2022-10-31T04:14:11;13.10;99.90
11055;DHT22;5580;50.106;8.702;2022-10-31T04:16:39;13.00;99.90
11055;DHT22;5580;50.106;8.702;2022-10-31T04:19:07;12.90;99.90
11055;DHT22;5580;50.106;8.702;2022-10-31T04:21:32;12.80;99.90
11055;DHT22;5580;50.106;8.702;2022-10-31T04:23:58;12.70;99.90
11055;DHT22;5580;50.106;8.702;2022-10-31T04:26:23;12.70;99.90
11055;DHT22;5580;50.106;8.702;2022-10-31T04:28:49;12.70;99.90
11055;DHT22;5580;50.106;8.702;2022-10-31T04:31:15;12.70;99.90
11055;DHT22;5580;50.106;8.702;2022-10-31T04:33:40;12.70;99.90
11055;DHT22;5580;50.106;8.702;2022-10-31T04:36:06;12.80;99.90
11055;DHT22;5580;50.106;8.702;2022-10-31T04:38:32;12.90;99.90
11055;DHT22;5580;50.106;8.702;2022-10-31T04:40:58;12.90;99.90
11055;DHT22;5580;50.106;8.702;2022-10-31T04:43:24;13.00;99.90
11055;DHT22;5580;50.106;8.702;2022-10-31T04:45:49;13.00;99.90
11055;DHT22;5580;50.106;8.702;2022-10-31T04:48:15;13.00;99.90
11055;DHT22;5580;50.106;8.702;2022-10-31T04:50:40;13.00;99.90
11055;DHT22;5580;50.106;8.702;2022-10-31T04:53:06;13.00;99.90
11055;DHT22;5580;50.106;8.702;2022-10-31T04:55:32;13.00;99.90
11055;DHT22;5580;50.106;8.702;2022-10-31T04:57:57;13.10;99.90
11055;DHT22;5580;50.106;8.702;2022-10-31T05:00:24;13.20;99.90
11055;DHT22;5580;50.106;8.702;2022-10-31T05:02:54;13.30;99.90
11055;DHT22;5580;50.106;8.702;2022-10-31T05:05:22;13.30;99.90
11055;DHT22;5580;50.106;8.702;2022-10-31T05:07:49;13.30;99.90
11055;DHT22;5580;50.106;8.702;2022-10-31T05:10:17;13.40;99.90
11055;DHT22;5580;50.106;8.702;2022-10-31T05:12:55;13.30;99.90
11055;DHT22;5580;50.106;8.702;2022-10-31T05:15:22;13.30;99.90
11055;DHT22;5580;50.106;8.702;2022-10-31T05:17:48;13.30;99.90
11055;DHT22;5580;50.106;8.702;2022-10-31T05:20:19;13.30;99.90
11055;DHT22;5580;50.106;8.702;2022-10-31T05:22:55;13.20;99.90
11055;DHT22;5580;50.106;8.702;2022-10-31T05:25:23;13.20;99.90
11055;DHT22;5580;50.106;8.702;2022-10-31T05:27:50;13.30;99.90
11055;DHT22;5580;50.106;8.702;2022-10-31T05:30:19;13.30;99.90
11055;DHT22;5580;50.106;8.702;2022-10-31T05:32:47;13.30;99.90
11055;DHT22;5580;50.106;8.702;2022-10-31T05:35:16;13.20;99.90
11055;DHT22;5580;50.106;8.702;2022-10-31T05:37:42;13.20;99.90
11055;DHT22;5580;50.106;8.702;2022-10-31T05:40:10;13.30;99.90
11055;DHT22;5580;50.106;8.702;2022-10-31T05:42:38;13.30;99.90
11055;DHT22;5580;50.106;8.702;2022-10-31T05:45:04;13.30;99.90
11055;DHT22;5580;50.106;8.702;2022-10-31T05:47:30;13.30;99.90
11055;DHT22;5580;50.106;8.702;2022-10-31T05:49:55;13.40;99.90
11055;DHT22;5580;50.106;8.702;2022-10-31T05:52:21;13.40;99.90
11055;DHT22;5580;50.106;8.702;2022-10-31T05:54:46;13.40;99.90
11055;DHT22;5580;50.106;8.702;2022-10-31T05:57:12;13.50;99.90
11055;DHT22;5580;50.106;8.702;2022-10-31T05:59:37;13.50;99.90
11055;DHT22;5580;50.106;8.702;2022-10-31T06:02:03;13.50;99.90
11055;DHT22;5580;50.106;8.702;2022-10-31T06:04:28;13.50;99.90
11055;DHT22;5580;50.106;8.702;2022-10-31T06:06:55;13.50;99.90
11055;DHT22;5580;50.106;8.702;2022-10-31T06:09:21;13.60;99.90
11055;DHT22;5580;50.106;8.702;2022-10-31T06:11:47;13.60;99.90
11055;DHT22;5580;50.106;8.702;2022-10-31T06:14:12;13.60;99.90
11055;DHT22;5580;50.106;8.702;2022-10-31T06:16:38;13.60;99.90
11055;DHT22;5580;50.106;8.702;2022-10-31T06:19:03;13.60;99.90
11055;DHT22;5580;50.106;8.702;2022-10-31T06:21:29;13.60;99.90
11055;DHT22;5580;50.106;8.702;2022-10-31T06:23:55;13.60;99.90
11055;DHT22;5580;50.106;8.702;2022-10-31T06:26:20;13.60;99.90
11055;DHT22;5580;50.106;8.702;2022-10-31T06:28:46;13.60;99.90
11055;DHT22;5580;50.106;8.702;2022-10-31T06:31:11;13.60;99.90
11055;DHT22;5580;50.106;8.702;2022-10-31T06:33:37;13.60;99.90
11055;DHT22;5580;50.106;8.702;2022-10-31T06:36:02;13.60;99.90
11055;DHT22;5580;50.106;8.702;2022-10-31T06:38:28;13.70;99.90
11055;DHT22;5580;50.106;8.702;2022-10-31T06:40:54;13.70;99.90
11055;DHT22;5580;50.106;8.702;2022-10-31T06:43:21;13.70;99.90
11055;DHT22;5580;50.106;8.702;2022-10-31T06:45:47;13.70;99.90
11055;DHT22;5580;50.106;8.702;2022-10-31T06:48:12;13.60;99.90
11055;DHT22;5580;50.106;8.702;2022-10-31T06:50:38;13.50;99.90
11055;DHT22;5580;50.106;8.702;2022-10-31T06:53:04;13.40;99.90
11055;DHT22;5580;50.106;8.702;2022-10-31T06:55:29;13.50;99.90
11055;DHT22;5580;50.106;8.702;2022-10-31T06:57:57;13.50;99.90
11055;DHT22;5580;50.106;8.702;2022-10-31T07:00:24;13.50;99.90
11055;DHT22;5580;50.106;8.702;2022-10-31T07:02:54;13.40;99.90
11055;DHT22;5580;50.106;8.702;2022-10-31T07:05:20;13.40;99.90
11055;DHT22;5580;50.106;8.702;2022-10-31T07:07:46;13.50;99.90
11055;DHT22;5580;50.106;8.702;2022-10-31T07:10:12;13.50;99.90
11055;DHT22;5580;50.106;8.702;2022-10-31T07:12:37;13.50;99.90
11055;DHT22;5580;50.106;8.702;2022-10-31T07:15:04;13.50;99.90
11055;DHT22;5580;50.106;8.702;2022-10-31T07:17:29;13.50;99.90
11055;DHT22;5580;50.106;8.702;2022-10-31T07:19:55;13.50;99.90
11055;DHT22;5580;50.106;8.702;2022-10-31T07:22:21;13.40;99.90
11055;DHT22;5580;50.106;8.702;2022-10-31T07:24:47;13.40;99.90
11055;DHT22;5580;50.106;8.702;2022-10-31T07:27:12;13.40;99.90
11055;DHT22;5580;50.106;8.702;2022-10-31T07:29:38;13.40;99.90
11055;DHT22;5580;50.106;8.702;2022-10-31T07:32:03;13.30;99.90
11055;DHT22;5580;50.106;8.702;2022-10-31T07:34:29;13.30;99.90
11055;DHT22;5580;50.106;8.702;2022-10-31T07:36:55;13.30;99.90
11055;DHT22;5580;50.106;8.702;2022-10-31T07:39:20;13.30;99.90
11055;DHT22;5580;50.106;8.702;2022-10-31T07:41:46;13.40;99.90
11055;DHT22;5580;50.106;8.702;2022-10-31T07:44:11;13.40;99.90
11055;DHT22;5580;50.106;8.702;2022-10-31T07:46:37;13.50;99.90
11055;DHT22;5580;50.106;8.702;2022-10-31T07:49:02;13.50;99.90
11055;DHT22;5580;50.106;8.702;2022-10-31T07:51:28;13.50;99.90
11055;DHT22;5580;50.106;8.702;2022-10-31T07:53:54;13.60;99.90
11055;DHT22;5580;50.106;8.702;2022-10-31T07:56:19;13.60;99.90
11055;DHT22;5580;50.106;8.702;2022-10-31T07:58:45;13.60;99.90
11055;DHT22;5580;50.106;8.702;2022-10-31T08:01:11;13.70;99.90
11055;DHT22;5580;50.106;8.702;2022-10-31T08:03:36;13.70;99.90
11055;DHT22;5580;50.106;8.702;2022-10-31T08:06:02;13.80;99.90
11055;DHT22;5580;50.106;8.702;2022-10-31T08:08:27;13.70;99.90
11055;DHT22;5580;50.106;8.702;2022-10-31T08:10:54;13.60;99.90
11055;DHT22;5580;50.106;8.702;2022-10-31T08:13:20;13.50;99.90
11055;DHT22;5580;50.106;8.702;2022-10-31T08:15:46;13.50;99.90
11055;DHT22;5580;50.106;8.702;2022-10-31T08:18:15;13.40;99.90
11055;DHT22;5580;50.106;8.702;2022-10-31T08:20:42;13.40;99.90
11055;DHT22;5580;50.106;8.702;2022-10-31T08:23:09;13.40;99.90
11055;DHT22;5580;50.106;8.702;2022-10-31T08:25:36;13.50;99.90
11055;DHT22;5580;50.106;8.702;2022-10-31T08:28:02;13.40;99.90
11055;DHT22;5580;50.106;8.702;2022-10-31T08:30:33;13.40;99.90
11055;DHT22;5580;50.106;8.702;2022-10-31T08:35:25;13.50;99.90
11055;DHT22;5580;50.106;8.702;2022-10-31T08:37:55;13.50;99.90
11055;DHT22;5580;50.106;8.702;2022-10-31T08:40:21;13.50;99.90
11055;DHT22;5580;50.106;8.702;2022-10-31T08:42:47;13.50;99.90
11055;DHT22;5580;50.106;8.702;2022-10-31T08:45:12;13.60;99.90
11055;DHT22;5580;50.106;8.702;2022-10-31T08:47:38;13.60;99.90
11055;DHT22;5580;50.106;8.702;2022-10-31T08:50:04;13.60;99.90
11055;DHT22;5580;50.106;8.702;2022-10-31T08:52:30;13.60;99.90
11055;DHT22;5580;50.106;8.702;2022-10-31T08:54:55;13.60;99.90
11055;DHT22;5580;50.106;8.702;2022-10-31T08:57:21;13.60;99.90
11055;DHT22;5580;50.106;8.702;2022-10-31T08:59:46;13.60;99.90
11055;DHT22;5580;50.106;8.702;2022-10-31T09:02:12;13.60;99.90
11055;DHT22;5580;50.106;8.702;2022-10-31T09:04:37;13.70;99.90
11055;DHT22;5580;50.106;8.702;2022-10-31T09:07:03;13.70;99.90
11055;DHT22;5580;50.106;8.702;2022-10-31T09:09:28;13.70;99.90
11055;DHT22;5580;50.106;8.702;2022-10-31T09:11:54;13.70;99.90
11055;DHT22;5580;50.106;8.702;2022-10-31T09:14:20;13.80;99.90
11055;DHT22;5580;50.106;8.702;2022-10-31T09:16:45;13.90;99.90
11055;DHT22;5580;50.106;8.702;2022-10-31T09:19:11;14.00;99.90
11055;DHT22;5580;50.106;8.702;2022-10-31T09:21:36;14.00;99.90
11055;DHT22;5580;50.106;8.702;2022-10-31T09:24:02;14.00;99.90
11055;DHT22;5580;50.106;8.702;2022-10-31T09:26:27;14.00;99.90
11055;DHT22;5580;50.106;8.702;2022-10-31T09:28:53;14.10;99.90
11055;DHT22;5580;50.106;8.702;2022-10-31T09:31:18;14.10;99.90
11055;DHT22;5580;50.106;8.702;2022-10-31T09:33:44;14.00;99.90
11055;DHT22;5580;50.106;8.702;2022-10-31T09:36:10;14.00;99.90
11055;DHT22;5580;50.106;8.702;2022-10-31T09:38:35;14.00;99.90
11055;DHT22;5580;50.106;8.702;2022-10-31T09:43:58;14.00;99.90
11055;DHT22;5580;50.106;8.702;2022-10-31T09:51:57;14.10;99.90
11055;DHT22;5580;50.106;8.702;2022-10-31T09:55:01;14.10;99.90
11055;DHT22;5580;50.106;8.702;2022-10-31T09:57:32;14.20;99.90
11055;DHT22;5580;50.106;8.702;2022-10-31T09:59:59;14.30;99.90
11055;DHT22;5580;50.106;8.702;2022-10-31T10:05:00;14.40;99.90
11055;DHT22;5580;50.106;8.702;2022-10-31T10:10:17;14.50;99.90
11055;DHT22;5580;50.106;8.702;2022-10-31T10:16:02;14.60;99.90
11055;DHT22;5580;50.106;8.702;2022-10-31T10:18:47;14.60;99.90
11055;DHT22;5580;50.106;8.702;2022-10-31T10:26:29;14.70;99.90
11055;DHT22;5580;50.106;8.702;2022-10-31T10:29:01;14.70;99.90
11055;DHT22;5580;50.106;8.702;2022-10-31T10:31:33;14.80;99.90
11055;DHT22;5580;50.106;8.702;2022-10-31T10:36:40;14.80;99.90
11055;DHT22;5580;50.106;8.702;2022-10-31T10:39:24;14.80;99.90
11055;DHT22;5580;50.106;8.702;2022-10-31T10:41:51;14.90;99.90
11055;DHT22;5580;50.106;8.702;2022-10-31T10:44:42;14.90;99.90
11055;DHT22;5580;50.106;8.702;2022-10-31T10:47:35;14.90;99.90
11055;DHT22;5580;50.106;8.702;2022-10-31T10:50:17;14.90;99.90
11055;DHT22;5580;50.106;8.702;2022-10-31T10:55:51;15.00;99.90
11055;DHT22;5580;50.106;8.702;2022-10-31T10:58:18;15.00;99.90
11055;DHT22;5580;50.106;8.702;2022-10-31T11:00:46;15.00;99.90
11055;DHT22;5580;50.106;8.702;2022-10-31T11:03:13;15.10;99.90
11055;DHT22;5580;50.106;8.702;2022-10-31T11:05:59;15.10;99.90
11055;DHT22;5580;50.106;8.702;2022-10-31T11:08:34;15.20;99.90
11055;DHT22;5580;50.106;8.702;2022-10-31T11:13:35;15.20;99.90
11055;DHT22;5580;50.106;8.702;2022-10-31T11:16:43;15.30;99.90
11055;DHT22;5580;50.106;8.702;2022-10-31T11:19:23;15.30;99.90
11055;DHT22;5580;50.106;8.702;2022-10-31T11:21:51;15.30;99.90
11055;DHT22;5580;50.106;8.702;2022-10-31T11:24:20;15.40;99.90
11055;DHT22;5580;50.106;8.702;2022-10-31T11:26:47;15.50;99.90
11055;DHT22;5580;50.106;8.702;2022-10-31T11:29:19;15.50;99.90
11055;DHT22;5580;50.106;8.702;2022-10-31T11:31:46;15.60;99.90
11055;DHT22;5580;50.106;8.702;2022-10-31T11:34:35;15.60;99.90
11055;DHT22;5580;50.106;8.702;2022-10-31T11:37:18;15.70;99.90
11055;DHT22;5580;50.106;8.702;2022-10-31T11:40:22;15.70;99.90
11055;DHT22;5580;50.106;8.702;2022-10-31T11:42:41;15.80;99.90
11055;DHT22;5580;50.106;8.702;2022-10-31T11:45:26;15.80;99.90
11055;DHT22;5580;50.106;8.702;2022-10-31T11:47:54;15.90;99.90
11055;DHT22;5580;50.106;8.702;2022-10-31T11:52:58;15.90;99.90
11055;DHT22;5580;50.106;8.702;2022-10-31T11:55:33;15.90;99.90
11055;DHT22;5580;50.106;8.702;2022-10-31T11:57:59;16.00;99.90
11055;DHT22;5580;50.106;8.702;2022-10-31T12:00:38;16.00;99.90
11055;DHT22;5580;50.106;8.702;2022-10-31T12:03:32;16.00;99.90
11055;DHT22;5580;50.106;8.702;2022-10-31T12:06:20;16.00;99.90
11055;DHT22;5580;50.106;8.702;2022-10-31T12:08:45;16.00;99.90
11055;DHT22;5580;50.106;8.702;2022-10-31T12:14:16;16.10;99.90
11055;DHT22;5580;50.106;8.702;2022-10-31T12:19:58;16.20;99.90
11055;DHT22;5580;50.106;8.702;2022-10-31T12:25:20;16.20;99.90
11055;DHT22;5580;50.106;8.702;2022-10-31T12:30:23;16.30;99.90
11055;DHT22;5580;50.106;8.702;2022-10-31T12:35:44;16.40;99.90
11055;DHT22;5580;50.106;8.702;2022-10-31T12:41:23;16.40;99.90
11055;DHT22;5580;50.106;8.702;2022-10-31T12:44:06;16.40;99.90
11055;DHT22;5580;50.106;8.702;2022-10-31T12:49:47;16.50;99.90
11055;DHT22;5580;50.106;8.702;2022-10-31T12:57:29;16.70;99.90
11055;DHT22;5580;50.106;8.702;2022-10-31T13:00:04;16.80;99.90
11055;DHT22;5580;50.106;8.702;2022-10-31T13:10:24;16.80;99.90
11055;DHT22;5580;50.106;8.702;2022-10-31T13:12:55;16.90;99.90
11055;DHT22;5580;50.106;8.702;2022-10-31T13:15:26;16.90;99.90
11055;DHT22;5580;50.106;8.702;2022-10-31T13:17:58;16.90;99.90
11055;DHT22;5580;50.106;8.702;2022-10-31T13:20:34;16.90;99.90
11055;DHT22;5580;50.106;8.702;2022-10-31T13:23:36;16.90;99.90
11055;DHT22;5580;50.106;8.702;2022-10-31T13:31:21;17.00;99.90
11055;DHT22;5580;50.106;8.702;2022-10-31T13:33:52;16.90;99.90
11055;DHT22;5580;50.106;8.702;2022-10-31T13:38:54;17.00;99.90
11055;DHT22;5580;50.106;8.702;2022-10-31T13:41:46;17.00;99.90
11055;DHT22;5580;50.106;8.702;2022-10-31T13:46:40;17.00;99.90
11055;DHT22;5580;50.106;8.702;2022-10-31T13:54:47;17.10;99.90
11055;DHT22;5580;50.106;8.702;2022-10-31T13:57:22;17.10;99.90
11055;DHT22;5580;50.106;8.702;2022-10-31T14:00:00;17.10;99.90
11055;DHT22;5580;50.106;8.702;2022-10-31T14:02:31;17.10;99.90
11055;DHT22;5580;50.106;8.702;2022-10-31T14:05:02;17.10;99.90
11055;DHT22;5580;50.106;8.702;2022-10-31T14:07:29;17.10;99.90
11055;DHT22;5580;50.106;8.702;2022-10-31T14:10:27;17.20;99.90
11055;DHT22;5580;50.106;8.702;2022-10-31T14:15:42;17.20;99.90
11055;DHT22;5580;50.106;8.702;2022-10-31T14:18:22;17.20;99.90
11055;DHT22;5580;50.106;8.702;2022-10-31T14:20:48;17.20;99.90
11055;DHT22;5580;50.106;8.702;2022-10-31T14:23:39;17.20;99.90
11055;DHT22;5580;50.106;8.702;2022-10-31T14:28:52;17.20;99.90
11055;DHT22;5580;50.106;8.702;2022-10-31T14:33:52;17.20;99.90
11055;DHT22;5580;50.106;8.702;2022-10-31T14:36:33;17.20;99.90
11055;DHT22;5580;50.106;8.702;2022-10-31T14:42:17;17.20;99.90
11055;DHT22;5580;50.106;8.702;2022-10-31T14:52:36;17.20;99.90
11055;DHT22;5580;50.106;8.702;2022-10-31T14:55:06;17.30;99.90
11055;DHT22;5580;50.106;8.702;2022-10-31T14:57:36;17.30;99.90
11055;DHT22;5580;50.106;8.702;2022-10-31T15:00:05;17.40;99.90
11055;DHT22;5580;50.106;8.702;2022-10-31T15:05:22;17.40;99.90
11055;DHT22;5580;50.106;8.702;2022-10-31T15:07:52;17.40;99.90
11055;DHT22;5580;50.106;8.702;2022-10-31T15:10:22;17.40;99.90
11055;DHT22;5580;50.106;8.702;2022-10-31T15:12:48;17.50;99.90
11055;DHT22;5580;50.106;8.702;2022-10-31T15:15:24;17.50;99.90
11055;DHT22;5580;50.106;8.702;2022-10-31T15:18:00;17.50;99.90
11055;DHT22;5580;50.106;8.702;2022-10-31T15:20:33;17.50;99.90
11055;DHT22;5580;50.106;8.702;2022-10-31T15:23:01;17.50;99.90
11055;DHT22;5580;50.106;8.702;2022-10-31T15:25:32;17.50;99.90
11055;DHT22;5580;50.106;8.702;2022-10-31T15:27:58;17.50;99.90
11055;DHT22;5580;50.106;8.702;2022-10-31T15:30:29;17.50;99.90
11055;DHT22;5580;50.106;8.702;2022-10-31T15:32:55;17.50;99.90
11055;DHT22;5580;50.106;8.702;2022-10-31T15:35:29;17.50;99.90
11055;DHT22;5580;50.106;8.702;2022-10-31T15:37:57;17.50;99.90
11055;DHT22;5580;50.106;8.702;2022-10-31T15:40:24;17.50;99.90
11055;DHT22;5580;50.106;8.702;2022-10-31T15:43:00;17.50;99.90
11055;DHT22;5580;50.106;8.702;2022-10-31T15:45:28;17.50;99.90
11055;DHT22;5580;50.106;8.702;2022-10-31T15:48:03;17.50;99.90
11055;DHT22;5580;50.106;8.702;2022-10-31T15:50:40;17.50;99.90
11055;DHT22;5580;50.106;8.702;2022-10-31T15:53:27;17.50;99.90
11055;DHT22;5580;50.106;8.702;2022-10-31T15:56:00;17.50;99.90
11055;DHT22;5580;50.106;8.702;2022-10-31T15:58:28;17.50;99.90
11055;DHT22;5580;50.106;8.702;2022-10-31T16:01:18;17.40;99.90
11055;DHT22;5580;50.106;8.702;2022-10-31T16:03:58;17.50;99.90
11055;DHT22;5580;50.106;8.702;2022-10-31T16:06:24;17.50;99.90
11055;DHT22;5580;50.106;8.702;2022-10-31T16:08:50;17.50;99.90
11055;DHT22;5580;50.106;8.702;2022-10-31T16:11:28;17.40;99.90
11055;DHT22;5580;50.106;8.702;2022-10-31T16:14:16;17.40;99.90
11055;DHT22;5580;50.106;8.702;2022-10-31T16:16:45;17.30;99.90
11055;DHT22;5580;50.106;8.702;2022-10-31T16:19:19;17.30;99.90
11055;DHT22;5580;50.106;8.702;2022-10-31T16:21:47;17.30;99.90
11055;DHT22;5580;50.106;8.702;2022-10-31T16:24:26;17.20;99.90
11055;DHT22;5580;50.106;8.702;2022-10-31T16:26:55;17.20;99.90
11055;DHT22;5580;50.106;8.702;2022-10-31T16:29:42;17.10;99.90
11055;DHT22;5580;50.106;8.702;2022-10-31T16:32:25;17.00;99.90
11055;DHT22;5580;50.106;8.702;2022-10-31T16:37:33;16.80;99.90
11055;DHT22;5580;50.106;8.702;2022-10-31T16:39:59;16.80;99.90
11055;DHT22;5580;50.106;8.702;2022-10-31T16:42:25;16.80;99.90
11055;DHT22;5580;50.106;8.702;2022-10-31T16:44:51;16.80;99.90
11055;DHT22;5580;50.106;8.702;2022-10-31T16:47:17;16.80;99.90
11055;DHT22;5580;50.106;8.702;2022-10-31T16:49:46;16.90;99.90
11055;DHT22;5580;50.106;8.702;2022-10-31T16:52:11;16.90;99.90
11055;DHT22;5580;50.106;8.702;2022-10-31T16:54:38;16.90;99.90
11055;DHT22;5580;50.106;8.702;2022-10-31T16:57:05;17.00;99.90
11055;DHT22;5580;50.106;8.702;2022-10-31T16:59:32;17.00;99.90
11055;DHT22;5580;50.106;8.702;2022-10-31T17:02:00;17.00;99.90
11055;DHT22;5580;50.106;8.702;2022-10-31T17:04:26;17.00;99.90
11055;DHT22;5580;50.106;8.702;2022-10-31T17:06:51;16.90;99.90
11055;DHT22;5580;50.106;8.702;2022-10-31T17:09:17;17.00;99.90
11055;DHT22;5580;50.106;8.702;2022-10-31T17:11:48;17.00;99.90
11055;DHT22;5580;50.106;8.702;2022-10-31T17:14:14;17.00;99.90
11055;DHT22;5580;50.106;8.702;2022-10-31T17:16:40;17.10;99.90
11055;DHT22;5580;50.106;8.702;2022-10-31T17:19:09;17.10;99.90
11055;DHT22;5580;50.106;8.702;2022-10-31T17:21:35;17.10;99.90
11055;DHT22;5580;50.106;8.702;2022-10-31T17:24:00;17.20;99.90
11055;DHT22;5580;50.106;8.702;2022-10-31T17:26:26;17.20;99.90
11055;DHT22;5580;50.106;8.702;2022-10-31T17:28:51;17.20;99.90
11055;DHT22;5580;50.106;8.702;2022-10-31T17:31:27;17.20;99.90
11055;DHT22;5580;50.106;8.702;2022-10-31T17:33:55;17.30;99.90
11055;DHT22;5580;50.106;8.702;2022-10-31T17:36:21;17.30;99.90
11055;DHT22;5580;50.106;8.702;2022-10-31T17:38:46;17.30;99.90
11055;DHT22;5580;50.106;8.702;2022-10-31T17:41:12;17.30;99.90
11055;DHT22;5580;50.106;8.702;2022-10-31T17:43:38;17.30;99.90
11055;DHT22;5580;50.106;8.702;2022-10-31T17:46:04;17.30;99.90
11055;DHT22;5580;50.106;8.702;2022-10-31T17:48:30;17.30;99.90
11055;DHT22;5580;50.106;8.702;2022-10-31T17:50:59;17.30;99.90
11055;DHT22;5580;50.106;8.702;2022-10-31T17:53:28;17.20;99.90
11055;DHT22;5580;50.106;8.702;2022-10-31T17:55:53;17.20;99.90
11055;DHT22;5580;50.106;8.702;2022-10-31T17:58:23;17.20;99.90
11055;DHT22;5580;50.106;8.702;2022-10-31T18:00:49;17.10;99.90
11055;DHT22;5580;50.106;8.702;2022-10-31T18:03:14;17.10;99.90
11055;DHT22;5580;50.106;8.702;2022-10-31T18:05:53;17.00;99.90
11055;DHT22;5580;50.106;8.702;2022-10-31T18:08:22;17.10;99.90
11055;DHT22;5580;50.106;8.702;2022-10-31T18:10:48;17.10;99.90
11055;DHT22;5580;50.106;8.702;2022-10-31T18:13:14;17.10;99.90
11055;DHT22;5580;50.106;8.702;2022-10-31T18:15:39;17.10;99.90
11055;DHT22;5580;50.106;8.702;2022-10-31T18:18:05;17.10;99.90
11055;DHT22;5580;50.106;8.702;2022-10-31T18:20:32;17.00;99.90
11055;DHT22;5580;50.106;8.702;2022-10-31T18:22:57;17.00;99.90